Tartu Mill Triathlon 2017
Skip Navigation Links
Results
Course Map
Statistics
08 July 2017
HyperLink
Page 1 of 8 (359 items)
[1]2345678
Pos
Race No
Fav
Print
Video
Name
Time
Category
Cat Pos
Gender
Gen Pos
Club
Country
Swim
O/Pos
T1
O/Pos
Cycle
O/Pos
T2
O/Pos
Run
O/Pos
1109Ivo Suur01:54:5825-291Male1Saksa Automaatika ProTeamEST 00:19:22400:01:20600:57:39100:00:46100:35:491
21Harri Sokk01:58:0330-341Male2 EST 00:19:51800:00:38500:59:11200:00:46200:37:352
3350Rait Ratasepp02:00:3230-342Male3TriSmileEST 00:21:434100:00:553001:01:571300:00:491300:35:063
4110Rait Pallo02:00:4140-441Male4Swedbank SpordiklubiEST 00:22:156300:01:195400:59:09400:00:50500:37:074
52Priit Ailt02:02:1530-343Male5TriSmileEST 00:18:50100:01:04101:03:03500:00:44400:38:315
6213Moritz Belmann02:02:5425-292Male63defacto Team asc DarmstadtGER 00:19:22500:00:52401:02:58800:00:50700:38:506
73Valdur Jaht02:03:3235-391Male7 EST 00:20:412600:01:112301:02:031100:00:521000:38:447
825Artis Davidnieks02:03:5535-392Male8 LAT 00:22:079000:01:197401:01:421700:00:541600:37:5212
9356Denis Danilkin02:04:0530-344Male9SK GARANTEST 00:19:05200:00:59201:01:07300:00:45300:42:088
1083Urmas Peiker02:04:2640-442Male10 EST 00:21:263500:01:062901:02:511400:01:061400:37:549
11353Raido Luuk02:04:2730-345Male11TriSmileEST 00:20:382700:00:591601:02:471200:00:471200:39:1410
1298Aivar Juus02:04:4040-443Male1221 CCEST 00:20:432800:01:002101:02:011000:01:031100:39:5111
1364Margus Heintalu02:04:5035-393Male13T3 TriatloniklubiEST 00:20:262100:00:591201:04:271500:00:491500:38:0813
14168Paul Ruubel02:05:0830-346Male14KeremeisterEST 00:20:433000:01:022701:01:20900:00:56900:41:0616
1586Igors Gucanovics02:05:2540-444Male15ironman.lvLAT 00:20:081300:01:05901:02:05700:01:02800:41:0314
16230Matt Rammo02:05:3025-293Male16TreeningpartnerEST 00:22:4911300:01:129001:04:024300:00:484100:36:3721
1758Rainer Kuhi02:05:3040-445Male1721 CCEST 00:20:241700:01:091301:01:27600:01:02600:41:2715
18134Anatoli Novikau02:05:3940-446Male18 BLR 00:20:191800:01:191901:04:332000:00:531900:38:3317
19182Nikita Tserednitsenko02:06:0920-241Male19 EST 00:20:222200:01:322601:05:353200:00:583100:37:3820
2091Vladimir Demjantšuk02:06:1135-394Male20Angry boysEST 00:20:021000:01:141001:06:152900:01:093000:37:2918
2162Kristjan Melikov02:06:1735-395Male2121.ccEST 00:20:241600:01:211501:05:352700:00:522500:38:0419
22284Rauno Pikkor02:06:5635-396Male22 EST 00:21:405000:01:405101:02:532300:00:542200:39:4722
2345Villu Klesmann02:07:3245-491Male2321 CCEST 00:20:171900:01:121401:06:313900:00:513400:38:3923
24325Henek Tomson02:07:4525-294Male24TreeningpartnerEST 00:22:278300:01:598701:03:183700:01:153800:38:4524
25203Taago Tulf02:08:1635-397Male2521 CCEST 00:20:332400:01:182401:04:101800:00:541700:41:1925
2699Margus Tamm02:08:1845-492Male26 EST 00:20:343600:01:123301:03:422100:00:522000:41:5526
27305Gilber Kask02:08:2730-347Male27TriSmileEST 00:23:2717600:01:5017301:01:123800:01:143900:40:4134
28257Raul Tomberg02:08:3540-447Male28Tabasalu UjumisklubiEST 00:22:068200:01:065801:02:061600:01:001800:42:1427
29291Kristjan Silvet02:08:5630-348Male2970.TRIEST 00:22:108100:01:267001:03:513600:00:573500:40:3030
30272Janno Metsapool02:09:0625-295Male30 EST 00:21:576000:01:204901:05:565000:00:514800:39:0029
31293Riho Rokk02:09:1825-296Male31Garmin Eesti/TriSmileEST 00:24:3516600:01:1313001:03:194900:00:474600:39:2231
32192Maksims Zagoruiko02:09:2140-448Male32 LAT 00:21:153300:01:353401:04:012400:01:012400:41:2628
33161Martins Marnauza02:09:3930-349Male33 LAT 00:21:535100:01:415301:05:114200:01:024200:39:5133
34152Taivo Olesk02:09:4430-3410Male34 EST 00:20:322000:01:141801:05:533100:00:472600:41:1732
35163Alan Rebane02:10:1220-242Male35 EST 00:20:091500:01:292001:07:184400:00:564400:40:1835
36136Pavel Grigorenko02:11:0735-398Male3621 CCEST 00:20:442500:01:152501:04:161900:01:032100:43:4636
37258Gundo Roosve02:11:0835-399Male37Pekikõhu Reissing TiimEST 00:22:5712700:01:1610801:03:464500:00:534500:42:1442
38318Artur Praun02:11:1040-449Male38TriSmileEST 00:21:264900:01:425001:07:116100:01:006000:39:4939
39295Iurii Korotkov02:11:1940-4410Male39 RUS 00:22:588900:01:297801:04:044100:01:034000:41:4437
40247Janar Novitski02:11:2635-3910Male40TriSmileEST 00:24:5019600:01:2717801:02:154800:00:574900:41:5441
41149Raido Kiipsaar02:11:2850-541Male4121 CCEST 00:23:2915100:01:2712901:05:006300:00:576200:40:3248
42159Asko Kuusalu02:11:3440-4411Male42 EST 00:20:001100:01:421701:07:404700:01:055000:41:0538
4359Urmas Laur02:11:4045-493Male43 EST 00:24:2121300:01:2919801:03:336800:01:106800:41:0552
4433Meelis Tammer02:11:5940-4412Male44 EST 00:22:026800:01:286301:03:072500:01:272900:43:5345
4581Andre Mägi02:12:0140-4413Male4521 CCEST 00:22:015800:01:194301:03:472600:01:162800:43:3640
4667Vladimir Piskovitin02:12:0550-542Male46 RUS 00:23:0210200:01:339301:06:557400:00:557300:39:3844
47129Kardon Kõiv02:12:1040-4414Male4721 CCEST 00:22:116500:01:386101:03:202800:01:062700:43:5343
48212Jevgeni Kalbin02:12:1835-3911Male4821 CCEST 00:22:277500:01:236601:03:283000:01:233300:43:3547
49254Jaan Jagomägi02:12:3140-4415Male49TriSmileEST 00:21:505500:01:525901:05:395200:00:595100:42:0949
50246Maris Liepa02:12:3245-494Male50Carnikavas sporta centrsLAT 00:19:44700:01:20801:05:252200:01:092300:44:5246
Page 1 of 8 (359 items)
[1]2345678